createdAt,value
2024-02-23T00:03:58.653Z,5.67
2024-02-23T00:09:01.728Z,5.67
2024-02-23T00:14:04.888Z,5.70
2024-02-23T00:19:10.252Z,5.71
2024-02-23T00:24:13.286Z,5.75
2024-02-23T00:29:16.580Z,5.72
2024-02-23T00:34:21.186Z,5.69
2024-02-23T00:39:24.640Z,5.55
2024-02-23T00:44:27.854Z,5.55
2024-02-23T00:49:33.233Z,5.52
2024-02-23T00:54:36.900Z,5.43
2024-02-23T00:59:40.028Z,5.41
2024-02-23T01:04:45.034Z,5.32
2024-02-23T01:09:48.706Z,5.21
2024-02-23T01:14:51.766Z,5.12
2024-02-23T01:19:56.294Z,5.05
2024-02-23T01:24:59.360Z,5.05
2024-02-23T01:30:03.015Z,5.04
2024-02-23T01:35:09.046Z,4.99
2024-02-23T01:40:16.278Z,4.97
2024-02-23T01:45:19.538Z,4.92
2024-02-23T01:50:24.147Z,4.99
2024-02-23T01:55:27.268Z,4.97
2024-02-23T02:00:31.678Z,4.91
2024-02-23T02:05:38.291Z,4.86
2024-02-23T02:10:41.662Z,4.90
2024-02-23T02:15:45.019Z,4.87
2024-02-23T02:20:57.009Z,4.81
2024-02-23T02:26:02.839Z,4.78
2024-02-23T02:31:05.965Z,4.74
2024-02-23T02:36:10.511Z,4.73
2024-02-23T02:41:13.694Z,4.69
2024-02-23T02:46:16.894Z,4.64
2024-02-23T02:51:22.069Z,4.61
2024-02-23T02:56:25.465Z,4.61
2024-02-23T03:01:28.480Z,4.60
2024-02-23T03:06:32.975Z,4.52
2024-02-23T03:11:36.307Z,4.48
2024-02-23T03:16:39.788Z,4.45
2024-02-23T03:21:44.301Z,4.44
2024-02-23T03:26:47.478Z,4.42
2024-02-23T03:31:50.824Z,4.35
2024-02-23T03:36:55.805Z,4.34
2024-02-23T03:41:58.989Z,4.32
2024-02-23T03:47:02.184Z,4.34
2024-02-23T03:52:07.748Z,4.36
2024-02-23T03:57:10.819Z,4.28
2024-02-23T04:02:14.061Z,4.28
2024-02-23T04:07:19.085Z,4.29
2024-02-23T04:12:22.319Z,4.30
2024-02-23T04:17:25.473Z,4.28
2024-02-23T04:22:29.884Z,4.26
2024-02-23T04:27:33.187Z,4.32
2024-02-23T04:32:36.426Z,4.38
2024-02-23T04:37:41.634Z,4.46
2024-02-23T04:42:46.537Z,4.53
2024-02-23T04:47:49.649Z,4.54
2024-02-23T04:52:54.113Z,4.39
2024-02-23T04:57:58.451Z,4.36
2024-02-23T05:03:04.611Z,4.41
2024-02-23T05:08:10.822Z,4.34
2024-02-23T05:13:14.127Z,4.41
2024-02-23T05:18:17.358Z,4.40
2024-02-23T05:23:22.052Z,4.45
2024-02-23T05:28:26.108Z,4.56
2024-02-23T05:33:29.398Z,4.72
2024-02-23T05:38:34.472Z,4.73
2024-02-23T05:43:37.691Z,4.64
2024-02-23T05:48:40.925Z,4.55
2024-02-23T05:53:45.830Z,4.61
2024-02-23T05:58:49.106Z,4.75
2024-02-23T06:03:54.523Z,4.90
2024-02-23T06:08:59.172Z,5.00
2024-02-23T06:14:02.557Z,5.03
2024-02-23T06:19:05.924Z,5.11
2024-02-23T06:24:10.422Z,5.17
2024-02-23T06:29:14.927Z,5.22
2024-02-23T06:34:18.716Z,5.22
2024-02-23T06:39:23.547Z,5.28
2024-02-23T06:44:26.710Z,5.31
2024-02-23T06:49:29.996Z,5.35
2024-02-23T06:54:34.523Z,5.40
2024-02-23T06:59:37.853Z,5.48
2024-02-23T07:04:41.308Z,5.56
2024-02-23T07:09:45.996Z,5.50
2024-02-23T07:14:49.085Z,5.70
2024-02-23T07:19:54.104Z,5.77
2024-02-23T07:24:58.742Z,5.96
2024-02-23T07:30:02.087Z,6.09
2024-02-23T07:35:06.107Z,6.05
2024-02-23T07:40:11.693Z,6.01
2024-02-23T07:45:15.506Z,5.95
2024-02-23T07:50:20.304Z,5.92
2024-02-23T07:55:25.366Z,5.92
2024-02-23T08:00:28.622Z,6.02
2024-02-23T08:05:32.289Z,6.16
2024-02-23T08:10:37.043Z,6.24
2024-02-23T08:15:40.576Z,6.28
2024-02-23T08:20:43.857Z,6.26
2024-02-23T08:25:49.536Z,6.15
2024-02-23T08:30:54.375Z,6.20
2024-02-23T08:35:57.583Z,6.34
2024-02-23T08:41:02.445Z,6.30
2024-02-23T08:46:08.942Z,6.48
2024-02-23T08:51:13.781Z,6.69
2024-02-23T08:56:18.346Z,6.93
2024-02-23T09:01:21.882Z,7.37
2024-02-23T09:06:25.682Z,7.56
2024-02-23T09:11:30.756Z,7.34
2024-02-23T09:16:34.053Z,7.14
2024-02-23T09:21:37.435Z,6.98
2024-02-23T09:26:42.356Z,6.92
2024-02-23T09:31:45.428Z,6.99
2024-02-23T09:36:49.536Z,6.83
2024-02-23T09:41:54.636Z,6.88
2024-02-23T09:47:00.670Z,6.89
2024-02-23T09:52:04.892Z,6.96
2024-02-23T09:57:11.216Z,7.15
2024-02-23T10:02:18.244Z,7.47
2024-02-23T10:07:21.796Z,7.74
2024-02-23T10:12:28.104Z,7.79
2024-02-23T10:17:33.448Z,7.56
2024-02-23T10:22:39.042Z,7.35
2024-02-23T10:27:44.509Z,7.43
2024-02-23T10:32:48.466Z,7.45
2024-02-23T10:37:54.580Z,7.61
2024-02-23T10:43:03.940Z,7.81
2024-02-23T10:48:09.645Z,7.90
2024-02-23T10:53:13.890Z,7.82
2024-02-23T10:58:20.030Z,7.68
2024-02-23T11:03:23.318Z,7.61
2024-02-23T11:08:26.334Z,7.66
2024-02-23T11:13:37.574Z,8.02
2024-02-23T11:18:42.921Z,8.38
2024-02-23T11:23:47.419Z,8.65
2024-02-23T11:28:55.508Z,8.57
2024-02-23T11:34:00.144Z,8.52
2024-02-23T11:39:04.068Z,8.77
2024-02-23T11:44:09.731Z,9.07
2024-02-23T11:49:13.005Z,9.05
2024-02-23T11:54:16.666Z,9.02
2024-02-23T11:59:22.715Z,9.05
2024-02-23T12:04:26.409Z,9.14
2024-02-23T12:09:29.746Z,9.34
2024-02-23T12:14:34.913Z,9.43
2024-02-23T12:19:41.342Z,9.44
2024-02-23T12:24:44.575Z,9.50
2024-02-23T12:29:54.802Z,9.54
2024-02-23T12:34:58.655Z,9.70
2024-02-23T12:40:01.908Z,9.84
2024-02-23T12:45:08.176Z,9.80
2024-02-23T12:50:12.534Z,9.81
2024-02-23T12:55:16.561Z,9.89
2024-02-23T13:00:21.552Z,9.97
2024-02-23T13:05:25.729Z,10.08
2024-02-23T13:10:28.868Z,10.00
2024-02-23T13:15:33.549Z,10.25
2024-02-23T13:20:37.134Z,10.32
2024-02-23T13:25:42.132Z,10.43
2024-02-23T13:30:46.729Z,10.37
2024-02-23T13:35:50.094Z,10.06
2024-02-23T13:40:53.458Z,10.15
2024-02-23T13:45:59.786Z,10.40
2024-02-23T13:51:04.693Z,10.45
2024-02-23T13:56:08.449Z,10.57
2024-02-23T14:01:13.024Z,10.55
2024-02-23T14:06:16.864Z,10.54
2024-02-23T14:11:20.795Z,10.61
2024-02-23T14:16:26.266Z,10.64
2024-02-23T14:21:30.083Z,10.69
2024-02-23T14:26:34.482Z,10.73
2024-02-23T14:31:39.228Z,10.63
2024-02-23T14:36:42.340Z,10.72
2024-02-23T14:41:47.543Z,11.10
2024-02-23T14:46:52.823Z,10.74
2024-02-23T14:51:56.089Z,10.68
2024-02-23T14:56:59.756Z,10.46
2024-02-23T15:02:06.501Z,10.38
2024-02-23T15:07:09.827Z,10.42
2024-02-23T15:12:15.040Z,10.36
2024-02-23T15:17:19.841Z,10.31
2024-02-23T15:22:23.117Z,10.19
2024-02-23T15:27:26.350Z,10.07
2024-02-23T15:32:31.349Z,10.05
2024-02-23T15:37:35.690Z,9.98
2024-02-23T15:42:39.237Z,9.91
2024-02-23T15:47:44.068Z,9.83
2024-02-23T15:52:49.123Z,9.77
2024-02-23T15:57:52.264Z,9.70
2024-02-23T16:02:58.021Z,9.61
2024-02-23T16:08:04.845Z,9.43
2024-02-23T16:13:08.476Z,9.28
2024-02-23T16:18:13.383Z,9.10
2024-02-23T16:23:16.599Z,9.03
2024-02-23T16:28:20.335Z,8.92
2024-02-23T16:33:26.077Z,8.81
2024-02-23T16:38:29.549Z,8.68
2024-02-23T16:43:35.104Z,8.62
2024-02-23T16:48:39.973Z,8.60
2024-02-23T16:53:43.549Z,8.65
2024-02-23T16:58:47.632Z,8.71
2024-02-23T17:03:52.775Z,8.05
2024-02-23T17:08:56.265Z,7.62
2024-02-23T17:13:59.449Z,7.35
2024-02-23T17:19:04.306Z,7.13
2024-02-23T17:24:08.222Z,7.08
2024-02-23T17:29:13.730Z,7.08
2024-02-23T17:34:18.487Z,6.99
2024-02-23T17:39:21.628Z,6.90
2024-02-23T17:44:28.609Z,6.84
2024-02-23T17:49:33.491Z,6.73
2024-02-23T17:54:36.973Z,6.57
2024-02-23T17:59:41.031Z,6.35
2024-02-23T18:04:47.757Z,6.23
2024-02-23T18:09:51.034Z,6.25
2024-02-23T18:14:54.144Z,6.32
2024-02-23T18:19:58.927Z,6.36
2024-02-23T18:25:02.277Z,6.34
2024-02-23T18:30:07.903Z,6.31
2024-02-23T18:35:12.827Z,6.28
2024-02-23T18:40:16.556Z,6.18
2024-02-23T18:45:21.763Z,6.00
2024-02-23T18:50:26.773Z,5.88
2024-02-23T18:55:30.165Z,5.78
2024-02-23T19:00:33.911Z,5.68
2024-02-23T19:05:38.674Z,5.68
2024-02-23T19:10:42.530Z,5.76
2024-02-23T19:15:47.521Z,5.74
2024-02-23T19:20:52.499Z,5.85
2024-02-23T19:25:58.166Z,6.03
2024-02-23T19:31:01.199Z,6.06
2024-02-23T19:36:06.503Z,6.14
2024-02-23T19:41:09.636Z,6.14
2024-02-23T19:46:17.647Z,6.28
2024-02-23T19:51:22.560Z,6.26
2024-02-23T19:56:25.868Z,6.24
2024-02-23T20:01:29.573Z,6.31
2024-02-23T20:06:34.382Z,6.29
2024-02-23T20:11:37.915Z,6.32
2024-02-23T20:16:41.134Z,6.34
2024-02-23T20:21:45.728Z,6.31
2024-02-23T20:26:49.510Z,6.31
2024-02-23T20:31:52.746Z,6.32
2024-02-23T20:36:57.285Z,6.33
2024-02-23T20:42:00.654Z,6.33
2024-02-23T20:47:04.140Z,6.29
2024-02-23T20:52:11.275Z,6.19
2024-02-23T20:57:14.525Z,6.20
2024-02-23T21:02:22.936Z,5.97
2024-02-23T21:07:27.789Z,5.85
2024-02-23T21:12:31.079Z,5.77
2024-02-23T21:17:34.331Z,5.69
2024-02-23T21:22:39.354Z,5.60
2024-02-23T21:27:42.713Z,5.58
2024-02-23T21:32:46.070Z,5.54
2024-02-23T21:37:50.779Z,5.52
2024-02-23T21:42:54.055Z,5.55
2024-02-23T21:47:57.520Z,5.49
2024-02-23T21:53:02.510Z,5.53
2024-02-23T21:58:06.176Z,5.51
2024-02-23T22:03:09.462Z,5.39
2024-02-23T22:08:14.281Z,5.21
2024-02-23T22:13:17.482Z,5.13
2024-02-23T22:18:20.863Z,5.18
2024-02-23T22:23:25.453Z,5.21
2024-02-23T22:28:28.632Z,5.26
2024-02-23T22:33:32.707Z,5.24
2024-02-23T22:38:37.580Z,5.13
2024-02-23T22:43:41.815Z,4.99
2024-02-23T22:48:45.090Z,4.79
2024-02-23T22:53:49.729Z,4.68
2024-02-23T22:58:52.892Z,4.64
2024-02-23T23:03:55.909Z,4.61
2024-02-23T23:09:01.042Z,4.55
2024-02-23T23:14:04.893Z,4.52
2024-02-23T23:19:08.149Z,4.50
2024-02-23T23:24:12.901Z,4.43
2024-02-23T23:29:16.038Z,4.39
2024-02-23T23:34:20.376Z,4.37
2024-02-23T23:39:25.548Z,4.35
2024-02-23T23:44:29.036Z,4.35
2024-02-23T23:49:32.243Z,4.34
2024-02-23T23:54:37.130Z,4.35
2024-02-23T23:59:40.381Z,4.34
